createdAt,value
2024-04-30T00:00:44.045Z,2.6
2024-04-30T00:02:44.060Z,2.7
2024-04-30T00:04:44.207Z,3.1
2024-04-30T00:14:44.048Z,2.9
2024-04-30T00:20:44.054Z,2.9
2024-04-30T00:22:44.052Z,2.9
2024-04-30T00:24:44.057Z,2.8
2024-04-30T00:28:44.075Z,2.7
2024-04-30T00:30:44.025Z,3.0
2024-04-30T00:32:44.095Z,2.9
2024-04-30T00:34:44.057Z,2.8
2024-04-30T00:36:44.070Z,3.0
2024-04-30T00:46:44.058Z,3.0
2024-04-30T00:50:44.096Z,3.1
2024-04-30T00:52:44.046Z,3.0
2024-04-30T00:54:44.069Z,2.9
2024-04-30T00:56:44.063Z,3.1
2024-04-30T01:02:44.080Z,2.6
2024-04-30T01:04:44.090Z,2.8
2024-04-30T01:08:44.088Z,3.2
2024-04-30T01:12:44.084Z,2.9
2024-04-30T01:14:44.061Z,3.2
2024-04-30T01:20:44.098Z,3.0
2024-04-30T01:26:44.088Z,3.5
2024-04-30T01:36:44.099Z,3.5
2024-04-30T01:38:44.142Z,3.6
2024-04-30T01:40:44.120Z,3.4
2024-04-30T01:42:44.137Z,3.4
2024-04-30T01:48:44.192Z,3.2
2024-04-30T01:50:44.116Z,3.4
2024-04-30T01:52:44.088Z,3.2
2024-04-30T01:58:44.128Z,3.0
2024-04-30T02:00:44.138Z,3.5
2024-04-30T02:06:44.116Z,3.4
2024-04-30T02:08:44.131Z,3.2
2024-04-30T02:10:44.198Z,3.2
2024-04-30T02:12:44.113Z,3.3
2024-04-30T02:14:44.124Z,3.4
2024-04-30T02:16:44.118Z,3.5
2024-04-30T02:20:44.125Z,3.3
2024-04-30T02:22:48.397Z,3.7
2024-04-30T02:24:44.139Z,3.3
2024-04-30T02:26:44.133Z,3.2
2024-04-30T02:28:44.129Z,3.4
2024-04-30T02:32:44.226Z,3.5
2024-04-30T02:34:44.179Z,3.4
2024-04-30T02:38:44.136Z,3.3
2024-04-30T02:40:44.208Z,3.4
2024-04-30T02:42:44.153Z,3.5
2024-04-30T02:44:44.186Z,3.2
2024-04-30T02:46:44.301Z,3.3
2024-04-30T02:50:44.146Z,3.5
2024-04-30T02:52:44.174Z,3.6
2024-04-30T02:54:44.159Z,3.4
2024-04-30T02:56:44.180Z,3.6
2024-04-30T02:58:44.150Z,3.5
2024-04-30T03:00:44.185Z,3.4
2024-04-30T03:02:44.168Z,3.3
2024-04-30T03:04:44.177Z,3.4
2024-04-30T03:08:44.184Z,3.4
2024-04-30T03:12:44.157Z,3.3
2024-04-30T03:16:44.186Z,3.5
2024-04-30T03:20:44.192Z,3.4
2024-04-30T03:26:44.241Z,3.5
2024-04-30T03:30:44.173Z,3.4
2024-04-30T03:40:44.267Z,3.8
2024-04-30T03:46:44.250Z,4.1
2024-04-30T03:50:44.202Z,3.8
2024-04-30T03:52:44.220Z,3.8
2024-04-30T03:54:44.187Z,3.5
2024-04-30T03:56:44.199Z,3.7
2024-04-30T04:00:44.233Z,4.3
2024-04-30T04:04:44.274Z,3.7
2024-04-30T04:06:44.202Z,3.6
2024-04-30T04:08:44.227Z,3.4
2024-04-30T04:14:48.091Z,4.0
2024-04-30T04:16:44.229Z,4.3
2024-04-30T04:18:44.274Z,4.2
2024-04-30T04:20:44.217Z,4.3
2024-04-30T04:22:44.330Z,5.0
2024-04-30T04:24:44.222Z,5.0
2024-04-30T04:26:44.224Z,4.2
2024-04-30T04:28:44.296Z,4.3
2024-04-30T04:32:44.299Z,4.1
2024-04-30T04:34:44.281Z,4.7
2024-04-30T04:36:44.267Z,4.2
2024-04-30T04:42:44.239Z,4.3
2024-04-30T04:50:44.260Z,4.6
2024-04-30T04:52:44.292Z,5.2
2024-04-30T04:54:44.252Z,5.2
2024-04-30T04:56:44.262Z,5.2
2024-04-30T04:58:44.233Z,5.0
2024-04-30T05:00:44.281Z,4.9
2024-04-30T05:04:44.308Z,5.1
2024-04-30T05:06:44.275Z,5.0
2024-04-30T05:08:44.271Z,5.3
2024-04-30T05:10:44.375Z,5.1
2024-04-30T05:12:44.259Z,5.1
2024-04-30T05:16:44.320Z,5.2
2024-04-30T05:20:44.263Z,5.2
2024-04-30T05:22:44.309Z,5.0
2024-04-30T05:26:44.279Z,4.9
2024-04-30T05:30:44.275Z,5.1
2024-04-30T05:32:44.356Z,5.0
2024-04-30T05:34:44.322Z,5.4
2024-04-30T05:38:44.280Z,5.1
2024-04-30T05:40:44.310Z,5.2
2024-04-30T05:44:44.302Z,5.2
2024-04-30T05:48:44.277Z,5.2
2024-04-30T05:50:44.291Z,4.8
2024-04-30T05:52:44.310Z,4.9
2024-04-30T06:00:44.373Z,5.0
2024-04-30T06:02:44.296Z,5.4
2024-04-30T06:06:44.312Z,5.1
2024-04-30T06:10:44.499Z,5.2
2024-04-30T06:12:44.339Z,5.2
2024-04-30T06:14:44.350Z,4.7
2024-04-30T06:16:44.351Z,4.9
2024-04-30T06:18:44.377Z,5.1
2024-04-30T06:20:44.310Z,5.0
2024-04-30T06:22:44.364Z,4.7
2024-04-30T06:26:44.366Z,5.6
2024-04-30T06:28:44.390Z,5.0
2024-04-30T06:32:44.407Z,5.3
2024-04-30T06:34:44.386Z,5.8
2024-04-30T06:38:44.357Z,5.0
2024-04-30T06:42:44.344Z,5.0
2024-04-30T06:46:44.406Z,4.7
2024-04-30T06:48:44.418Z,4.7
2024-04-30T06:52:44.394Z,5.2
2024-04-30T06:54:44.361Z,5.0
2024-04-30T06:56:44.323Z,5.3
2024-04-30T07:00:44.363Z,5.4
2024-04-30T07:02:44.355Z,5.1
2024-04-30T07:08:44.392Z,5.1
2024-04-30T07:10:44.382Z,5.1
2024-04-30T07:12:44.363Z,4.6
2024-04-30T07:16:52.067Z,4.8
2024-04-30T07:18:44.414Z,4.8
2024-04-30T07:22:44.421Z,4.9
2024-04-30T07:26:44.370Z,4.9
2024-04-30T07:28:44.474Z,5.1
2024-04-30T07:40:44.532Z,5.3
2024-04-30T07:42:44.397Z,4.8
2024-04-30T07:44:44.390Z,4.7
2024-04-30T07:48:44.394Z,4.5
2024-04-30T07:54:44.393Z,4.4
2024-04-30T08:00:44.453Z,4.4
2024-04-30T08:02:44.456Z,4.5
2024-04-30T08:06:44.408Z,4.4
2024-04-30T08:14:44.508Z,4.7
2024-04-30T08:18:44.428Z,4.1
2024-04-30T08:24:44.412Z,3.9
2024-04-30T08:26:44.399Z,4.2
2024-04-30T08:30:44.441Z,4.2
2024-04-30T08:32:44.485Z,3.7
2024-04-30T08:36:44.461Z,4.4
2024-04-30T08:42:44.433Z,4.7
2024-04-30T08:44:44.415Z,4.3
2024-04-30T08:48:44.449Z,4.2
2024-04-30T08:50:44.529Z,4.3
2024-04-30T08:52:44.443Z,3.7
2024-04-30T08:54:44.441Z,4.1
2024-04-30T08:58:44.584Z,4.2
2024-04-30T09:00:44.479Z,4.6
2024-04-30T09:02:44.485Z,4.0
2024-04-30T09:06:44.463Z,4.1
2024-04-30T09:10:44.529Z,4.1
2024-04-30T09:12:44.465Z,3.9
2024-04-30T09:14:44.481Z,3.7
2024-04-30T09:16:44.623Z,3.9
2024-04-30T09:24:44.476Z,3.9
2024-04-30T09:28:44.533Z,4.0
2024-04-30T09:32:44.531Z,4.2
2024-04-30T09:36:44.469Z,3.9
2024-04-30T09:38:44.462Z,4.1
2024-04-30T09:42:44.501Z,4.3
2024-04-30T09:48:44.535Z,4.0
2024-04-30T09:54:44.483Z,4.0
2024-04-30T09:56:44.474Z,4.1
2024-04-30T09:58:44.580Z,4.4
2024-04-30T10:00:44.540Z,4.2
2024-04-30T10:04:44.699Z,3.6
2024-04-30T10:06:45.773Z,3.5
2024-04-30T10:08:44.515Z,3.6
2024-04-30T10:12:44.522Z,3.4
2024-04-30T10:14:44.492Z,3.6
2024-04-30T10:16:44.550Z,4.0
2024-04-30T10:18:44.495Z,3.7
2024-04-30T10:22:44.716Z,3.5
2024-04-30T10:24:44.520Z,3.3
2024-04-30T10:30:44.538Z,3.3
2024-04-30T10:32:44.565Z,3.7
2024-04-30T10:36:44.527Z,3.2
2024-04-30T10:38:44.515Z,3.6
2024-04-30T10:40:44.615Z,3.3
2024-04-30T10:44:44.537Z,3.4
2024-04-30T10:46:44.774Z,3.3
2024-04-30T10:50:44.569Z,3.2
2024-04-30T10:52:44.580Z,3.3
2024-04-30T10:54:44.533Z,3.3
2024-04-30T10:58:44.578Z,3.7
2024-04-30T11:02:47.945Z,3.7
2024-04-30T11:04:44.611Z,3.2
2024-04-30T11:08:44.561Z,3.2
2024-04-30T11:14:44.555Z,3.4
2024-04-30T11:16:44.566Z,3.1
2024-04-30T11:18:44.739Z,3.3
2024-04-30T11:20:44.540Z,3.3
2024-04-30T11:22:44.639Z,3.7
2024-04-30T11:26:47.848Z,3.2
2024-04-30T11:30:44.566Z,3.2
2024-04-30T11:32:44.593Z,3.4
2024-04-30T11:34:44.723Z,3.2
2024-04-30T11:36:44.572Z,3.2
2024-04-30T11:38:44.612Z,3.1
2024-04-30T11:40:44.615Z,2.9
2024-04-30T11:42:45.380Z,3.2
2024-04-30T11:44:44.590Z,3.1
2024-04-30T11:46:44.669Z,3.1
2024-04-30T11:48:44.746Z,2.8
2024-04-30T11:50:44.598Z,3.3
2024-04-30T11:52:44.694Z,3.1
2024-04-30T11:54:44.623Z,3.2
2024-04-30T11:56:44.631Z,3.0
2024-04-30T11:58:44.673Z,3.0
2024-04-30T12:00:44.634Z,2.8
2024-04-30T12:06:45.639Z,2.7
2024-04-30T12:08:44.592Z,3.0
2024-04-30T12:10:44.718Z,2.7
2024-04-30T12:12:44.610Z,3.0
2024-04-30T12:14:44.620Z,2.9
2024-04-30T12:16:47.228Z,3.1
2024-04-30T12:18:44.634Z,2.7
2024-04-30T12:20:44.673Z,3.6
2024-04-30T12:22:44.748Z,2.8
2024-04-30T12:26:44.612Z,3.5
2024-04-30T12:28:44.746Z,3.0
2024-04-30T12:32:44.688Z,2.9
2024-04-30T12:34:44.700Z,3.0
2024-04-30T12:38:44.647Z,2.9
2024-04-30T12:42:44.641Z,2.9
2024-04-30T12:44:44.626Z,3.7
2024-04-30T12:46:44.754Z,3.4
2024-04-30T12:48:44.830Z,3.6
2024-04-30T12:50:44.673Z,3.3
2024-04-30T12:52:44.725Z,3.3
2024-04-30T12:54:44.648Z,3.1
2024-04-30T12:56:44.638Z,3.0
2024-04-30T12:58:44.734Z,2.9
2024-04-30T13:00:44.710Z,3.2
2024-04-30T13:02:44.682Z,2.8
2024-04-30T13:04:44.804Z,3.2
2024-04-30T13:06:44.659Z,3.2
2024-04-30T13:08:44.686Z,3.1
2024-04-30T13:12:44.687Z,3.1
2024-04-30T13:14:44.681Z,3.1
2024-04-30T13:16:44.871Z,3.3
2024-04-30T13:18:44.720Z,3.0
2024-04-30T13:20:44.658Z,3.0
2024-04-30T13:22:44.768Z,2.8
2024-04-30T13:24:44.700Z,2.8
2024-04-30T13:26:44.676Z,2.9
2024-04-30T13:28:44.764Z,2.8
2024-04-30T13:30:44.714Z,2.6
2024-04-30T13:32:44.743Z,2.7
2024-04-30T13:34:44.822Z,3.3
2024-04-30T13:36:44.779Z,2.6
2024-04-30T13:38:44.698Z,3.0
2024-04-30T13:40:44.832Z,2.8
2024-04-30T13:44:44.714Z,2.8
2024-04-30T13:46:44.876Z,2.9
2024-04-30T13:48:44.765Z,2.8
2024-04-30T13:50:44.688Z,2.8
2024-04-30T13:52:44.829Z,2.6
2024-04-30T13:54:44.734Z,2.6
2024-04-30T13:58:44.776Z,2.7
2024-04-30T14:00:44.742Z,2.9
2024-04-30T14:02:44.822Z,3.5
2024-04-30T14:04:44.788Z,2.9
2024-04-30T14:06:44.768Z,3.0
2024-04-30T14:08:44.715Z,2.8
2024-04-30T14:10:44.765Z,2.7
2024-04-30T14:12:44.733Z,2.9
2024-04-30T14:14:44.750Z,2.7
2024-04-30T14:16:44.889Z,3.0
2024-04-30T14:18:44.805Z,2.8
2024-04-30T14:20:44.719Z,2.8
2024-04-30T14:22:44.801Z,2.7
2024-04-30T14:24:44.799Z,2.6
2024-04-30T14:26:44.789Z,2.7
2024-04-30T14:28:44.864Z,2.5
2024-04-30T14:30:44.732Z,2.7
2024-04-30T14:32:44.834Z,2.5
2024-04-30T14:34:44.793Z,2.3
2024-04-30T14:36:44.759Z,2.4
2024-04-30T14:38:44.757Z,2.2
2024-04-30T14:40:44.789Z,2.2
2024-04-30T14:44:44.770Z,2.2
2024-04-30T14:46:44.866Z,2.0
2024-04-30T14:48:44.763Z,1.9
2024-04-30T14:52:44.921Z,2.1
2024-04-30T14:56:44.797Z,1.8
2024-04-30T14:58:44.860Z,2.1
2024-04-30T15:00:44.865Z,1.7
2024-04-30T15:02:44.801Z,1.8
2024-04-30T15:04:44.825Z,1.8
2024-04-30T15:08:44.785Z,2.0
2024-04-30T15:10:44.850Z,2.1
2024-04-30T15:12:44.814Z,2.2
2024-04-30T15:14:44.771Z,2.4
2024-04-30T15:16:45.019Z,2.2
2024-04-30T15:18:44.805Z,1.8
2024-04-30T15:22:44.910Z,2.1
2024-04-30T15:24:44.788Z,1.8
2024-04-30T15:26:44.782Z,1.9
2024-04-30T15:28:44.940Z,1.9
2024-04-30T15:30:44.814Z,2.0
2024-04-30T15:32:44.902Z,2.2
2024-04-30T15:34:44.901Z,1.8
2024-04-30T15:36:44.847Z,2.2
2024-04-30T15:38:44.833Z,2.2
2024-04-30T15:40:44.858Z,2.2
2024-04-30T15:42:44.854Z,2.3
2024-04-30T15:46:44.910Z,2.1
2024-04-30T15:50:44.850Z,2.3
2024-04-30T15:52:44.963Z,2.1
2024-04-30T15:54:44.851Z,2.2
2024-04-30T15:58:44.895Z,2.5
2024-04-30T16:00:44.851Z,2.7
2024-04-30T16:02:44.950Z,3.0
2024-04-30T16:06:44.902Z,2.3
2024-04-30T16:10:44.991Z,2.2
2024-04-30T16:12:44.857Z,2.1
2024-04-30T16:14:44.884Z,2.4
2024-04-30T16:16:44.911Z,1.8
2024-04-30T16:18:44.955Z,2.1
2024-04-30T16:20:44.836Z,1.9
2024-04-30T16:22:44.948Z,2.1
2024-04-30T16:24:44.857Z,2.2
2024-04-30T16:26:44.860Z,2.2
2024-04-30T16:28:45.198Z,2.2
2024-04-30T16:30:44.871Z,2.3
2024-04-30T16:32:44.992Z,2.3
2024-04-30T16:34:44.896Z,2.3
2024-04-30T16:36:44.888Z,2.4
2024-04-30T16:38:44.852Z,2.2
2024-04-30T16:40:44.888Z,2.2
2024-04-30T16:42:44.927Z,2.1
2024-04-30T16:44:48.456Z,2.1
2024-04-30T16:46:44.898Z,2.4
2024-04-30T16:48:44.969Z,2.3
2024-04-30T16:52:44.890Z,2.3
2024-04-30T16:54:44.908Z,2.6
2024-04-30T16:56:44.895Z,2.7
2024-04-30T16:58:44.874Z,2.6
2024-04-30T17:00:44.909Z,2.6
2024-04-30T17:02:44.950Z,2.2
2024-04-30T17:04:45.024Z,2.1
2024-04-30T17:06:44.959Z,2.2
2024-04-30T17:08:44.923Z,2.2
2024-04-30T17:10:44.904Z,2.2
2024-04-30T17:12:44.895Z,2.8
2024-04-30T17:16:44.931Z,2.6
2024-04-30T17:18:44.961Z,2.6
2024-04-30T17:20:44.924Z,2.7
2024-04-30T17:24:44.950Z,2.4
2024-04-30T17:26:44.906Z,2.7
2024-04-30T17:28:44.936Z,2.7
2024-04-30T17:30:45.163Z,2.7
2024-04-30T17:32:44.977Z,3.1
2024-04-30T17:36:48.111Z,2.8
2024-04-30T17:38:44.923Z,3.3
2024-04-30T17:40:44.937Z,3.0
2024-04-30T17:42:44.948Z,2.8
2024-04-30T17:44:44.940Z,3.2
2024-04-30T17:46:44.951Z,3.2
2024-04-30T17:48:45.017Z,3.5
2024-04-30T17:50:44.950Z,3.1
2024-04-30T17:54:44.984Z,3.3
2024-04-30T17:56:44.951Z,4.1
2024-04-30T17:58:44.951Z,3.0
2024-04-30T18:00:44.980Z,3.6
2024-04-30T18:02:44.983Z,3.8
2024-04-30T18:04:44.991Z,3.7
2024-04-30T18:08:44.989Z,4.4
2024-04-30T18:10:49.886Z,5.7
2024-04-30T18:12:45.051Z,6.0
2024-04-30T18:16:45.058Z,4.7
2024-04-30T18:18:45.018Z,5.4
2024-04-30T18:20:45.004Z,5.8
2024-04-30T18:22:45.002Z,5.9
2024-04-30T18:30:45.000Z,4.8
2024-04-30T18:34:45.021Z,4.1
2024-04-30T18:36:45.019Z,4.0
2024-04-30T18:40:44.994Z,4.7
2024-04-30T18:42:44.983Z,4.6
2024-04-30T18:46:45.017Z,5.9
2024-04-30T18:48:45.173Z,5.7
2024-04-30T18:50:45.009Z,5.6
2024-04-30T18:52:45.002Z,6.1
2024-04-30T18:54:45.056Z,5.6
2024-04-30T18:56:45.025Z,5.6
2024-04-30T18:58:45.039Z,5.9
2024-04-30T19:00:45.069Z,6.4
2024-04-30T19:02:45.029Z,5.6
2024-04-30T19:04:45.161Z,6.0
2024-04-30T19:06:45.028Z,6.7
2024-04-30T19:08:45.029Z,6.3
2024-04-30T19:10:45.057Z,6.4
2024-04-30T19:12:45.091Z,6.1
2024-04-30T19:14:45.044Z,6.6
2024-04-30T19:16:45.029Z,5.6
2024-04-30T19:20:45.037Z,5.3
2024-04-30T19:24:45.119Z,5.1
2024-04-30T19:28:45.105Z,5.1
2024-04-30T19:30:45.082Z,5.0
2024-04-30T19:34:45.158Z,6.5
2024-04-30T19:46:45.088Z,5.3
2024-04-30T19:48:45.170Z,4.7
2024-04-30T19:50:45.123Z,5.3
2024-04-30T19:52:45.083Z,4.9
2024-04-30T19:54:45.105Z,4.5
2024-04-30T19:56:45.078Z,4.8
2024-04-30T19:58:48.162Z,4.9
2024-04-30T20:00:45.151Z,5.2
2024-04-30T20:02:45.108Z,4.9
2024-04-30T20:04:45.175Z,4.8
2024-04-30T20:06:45.169Z,5.3
2024-04-30T20:08:45.073Z,4.2
2024-04-30T20:14:45.124Z,5.4
2024-04-30T20:20:45.144Z,4.8
2024-04-30T20:22:45.895Z,6.9
2024-04-30T20:28:45.106Z,5.1
2024-04-30T20:32:45.151Z,5.2
2024-04-30T20:34:45.094Z,4.7
2024-04-30T20:38:45.125Z,4.8
2024-04-30T20:40:45.089Z,4.5
2024-04-30T20:42:45.174Z,4.5
2024-04-30T20:46:45.146Z,4.3
2024-04-30T20:48:45.471Z,4.5
2024-04-30T20:54:45.161Z,4.2
2024-04-30T20:58:45.115Z,4.1
2024-04-30T21:00:45.759Z,4.4
2024-04-30T21:02:45.143Z,4.0
2024-04-30T21:06:45.265Z,3.9
2024-04-30T21:16:45.153Z,4.3
2024-04-30T21:18:45.312Z,4.8
2024-04-30T21:20:45.144Z,4.1
2024-04-30T21:24:45.202Z,6.0
2024-04-30T21:26:45.145Z,4.7
2024-04-30T21:28:45.161Z,4.6
2024-04-30T21:30:45.177Z,4.2
2024-04-30T21:32:45.291Z,3.8
2024-04-30T21:34:45.184Z,4.4
2024-04-30T21:38:45.164Z,4.1
2024-04-30T21:40:45.158Z,4.9
2024-04-30T21:42:45.207Z,4.8
2024-04-30T21:44:45.164Z,4.8
2024-04-30T21:46:45.227Z,4.4
2024-04-30T21:48:45.208Z,4.7
2024-04-30T21:50:45.166Z,4.1
2024-04-30T21:52:45.201Z,4.3
2024-04-30T21:54:45.196Z,4.2
2024-04-30T22:02:45.255Z,4.5
2024-04-30T22:04:45.230Z,4.8
2024-04-30T22:06:45.213Z,4.4
2024-04-30T22:10:45.256Z,4.6
2024-04-30T22:14:45.192Z,4.9
2024-04-30T22:16:45.173Z,4.6
2024-04-30T22:18:45.383Z,4.6
2024-04-30T22:20:45.187Z,4.5
2024-04-30T22:22:45.195Z,4.2
2024-04-30T22:26:45.210Z,5.0
2024-04-30T22:28:45.214Z,4.7
2024-04-30T22:30:45.271Z,4.2
2024-04-30T22:34:45.215Z,4.3
2024-04-30T22:36:45.247Z,4.4
2024-04-30T22:38:45.191Z,4.4
2024-04-30T22:40:45.245Z,4.3
2024-04-30T22:42:45.286Z,4.5
2024-04-30T22:44:45.212Z,4.3
2024-04-30T22:46:45.234Z,4.2
2024-04-30T22:48:45.306Z,4.5
2024-04-30T22:50:45.196Z,4.5
2024-04-30T22:52:45.227Z,4.2
2024-04-30T22:54:45.262Z,4.3
2024-04-30T22:56:45.209Z,4.2
2024-04-30T23:00:45.319Z,4.6
2024-04-30T23:06:45.282Z,4.1
2024-04-30T23:12:45.347Z,4.8
2024-04-30T23:14:45.251Z,4.6
2024-04-30T23:16:45.270Z,4.2
2024-04-30T23:18:45.345Z,4.3
2024-04-30T23:20:45.258Z,4.2
2024-04-30T23:22:45.223Z,4.6
2024-04-30T23:24:45.305Z,4.1
2024-04-30T23:26:45.263Z,4.6
2024-04-30T23:30:45.375Z,4.4
2024-04-30T23:36:45.293Z,4.7
2024-04-30T23:38:45.245Z,4.8
2024-04-30T23:40:45.253Z,4.0
2024-04-30T23:42:45.351Z,4.3
2024-04-30T23:44:45.257Z,4.3
2024-04-30T23:46:45.321Z,4.5
2024-04-30T23:48:45.388Z,4.5
2024-04-30T23:50:45.262Z,4.3
2024-04-30T23:52:45.267Z,4.3
2024-04-30T23:56:45.296Z,4.6
